createdAt,value
2019-02-02T00:01:03.371Z,50.63
2019-02-02T00:03:36.334Z,54.53
2019-02-02T00:06:08.595Z,52.80
2019-02-02T00:08:41.734Z,50.13
2019-02-02T00:11:13.933Z,50.17
2019-02-02T00:13:45.808Z,52.20
2019-02-02T00:16:18.194Z,52.57
2019-02-02T00:18:50.195Z,52.77
2019-02-02T00:21:22.429Z,52.10
2019-02-02T00:23:55.418Z,51.83
2019-02-02T00:26:29.819Z,52.17
2019-02-02T00:29:02.044Z,50.50
2019-02-02T00:31:36.839Z,54.23
2019-02-02T00:34:09.153Z,50.80
2019-02-02T00:36:41.207Z,55.07
2019-02-02T00:39:13.262Z,50.17
2019-02-02T00:41:45.538Z,50.50
2019-02-02T00:44:17.731Z,48.17
2019-02-02T00:46:49.710Z,51.70
2019-02-02T00:49:23.069Z,50.03
2019-02-02T00:51:57.672Z,49.50
2019-02-02T00:54:29.772Z,52.77
2019-02-02T00:57:01.747Z,51.17
2019-02-02T00:59:34.842Z,47.73
2019-02-02T01:02:07.027Z,51.03
2019-02-02T01:04:39.064Z,48.70
2019-02-02T01:07:11.526Z,49.47
2019-02-02T01:09:43.931Z,47.27
2019-02-02T01:12:17.230Z,49.63
2019-02-02T01:14:51.199Z,52.23
2019-02-02T01:17:24.487Z,51.23
2019-02-02T01:19:56.502Z,47.57
2019-02-02T01:22:29.600Z,49.10
2019-02-02T01:25:03.843Z,47.63
2019-02-02T01:27:35.880Z,43.57
2019-02-02T01:30:11.254Z,51.90
2019-02-02T01:32:44.394Z,49.07
2019-02-02T01:35:17.935Z,46.47
2019-02-02T01:37:49.959Z,50.67
2019-02-02T01:40:23.419Z,47.80
2019-02-02T01:42:56.589Z,50.93
2019-02-02T01:45:29.144Z,48.70
2019-02-02T01:48:01.636Z,50.63
2019-02-02T01:50:34.993Z,51.50
2019-02-02T01:53:08.280Z,46.20
2019-02-02T01:55:41.228Z,48.63
2019-02-02T01:58:16.952Z,45.77
2019-02-02T02:00:48.244Z,45.80
2019-02-02T02:03:21.673Z,48.77
2019-02-02T02:05:53.588Z,46.87
2019-02-02T02:08:25.516Z,45.23
2019-02-02T02:10:58.297Z,44.97
2019-02-02T02:13:30.331Z,44.47
2019-02-02T02:16:03.570Z,44.73
2019-02-02T02:18:35.580Z,49.33
2019-02-02T02:21:07.749Z,42.27
2019-02-02T02:23:42.486Z,41.67
2019-02-02T02:26:14.740Z,42.50
2019-02-02T02:28:48.848Z,43.00
2019-02-02T02:31:20.738Z,42.33
2019-02-02T02:33:52.860Z,46.90
2019-02-02T02:36:24.859Z,46.07
2019-02-02T02:38:56.976Z,47.33
2019-02-02T02:41:29.092Z,48.17
2019-02-02T02:44:01.318Z,47.00
2019-02-02T02:46:33.503Z,43.03
2019-02-02T02:49:05.603Z,47.27
2019-02-02T02:51:37.882Z,48.60
2019-02-02T02:54:11.227Z,44.70
2019-02-02T02:56:44.546Z,47.13
2019-02-02T02:59:16.800Z,42.47
2019-02-02T03:01:49.710Z,49.13
2019-02-02T03:04:22.004Z,47.33
2019-02-02T03:06:54.303Z,48.20
2019-02-02T03:09:27.651Z,50.37
2019-02-02T03:12:01.201Z,48.53
2019-02-02T03:14:33.567Z,50.00
2019-02-02T03:17:05.757Z,52.63
2019-02-02T03:19:37.748Z,52.43
2019-02-02T03:22:11.063Z,53.00
2019-02-02T03:24:43.353Z,56.17
2019-02-02T03:27:15.309Z,54.20
2019-02-02T03:29:47.468Z,50.80
2019-02-02T03:32:19.526Z,54.37
2019-02-02T03:34:51.715Z,55.37
2019-02-02T03:37:23.996Z,59.27
2019-02-02T03:39:56.340Z,51.43
2019-02-02T03:42:28.725Z,55.80
2019-02-02T03:45:01.995Z,58.03
2019-02-02T03:47:35.562Z,58.50
2019-02-02T03:50:08.306Z,57.17
2019-02-02T03:52:40.663Z,51.17
2019-02-02T03:55:13.778Z,58.33
2019-02-02T03:57:45.997Z,56.13
2019-02-02T04:00:20.654Z,53.37
2019-02-02T04:02:52.803Z,56.77
2019-02-02T04:05:26.862Z,52.23
2019-02-02T04:08:00.424Z,53.33
2019-02-02T04:10:32.529Z,53.43
2019-02-02T04:13:04.640Z,47.60
2019-02-02T04:15:36.622Z,50.90
2019-02-02T04:18:12.672Z,50.30
2019-02-02T04:20:44.823Z,56.73
2019-02-02T04:23:16.795Z,52.20
2019-02-02T04:25:48.991Z,53.07
2019-02-02T04:28:21.085Z,51.10
2019-02-02T04:30:53.479Z,49.23
2019-02-02T04:33:25.571Z,49.60
2019-02-02T04:35:57.896Z,50.97
2019-02-02T04:38:31.229Z,51.90
2019-02-02T04:41:02.849Z,48.97
2019-02-02T04:43:35.826Z,48.53
2019-02-02T04:46:07.956Z,54.13
2019-02-02T04:48:39.831Z,53.83
2019-02-02T04:51:11.921Z,47.97
2019-02-02T04:53:44.251Z,50.97
2019-02-02T04:56:17.544Z,52.27
2019-02-02T04:58:50.689Z,51.50
2019-02-02T05:01:22.916Z,51.80
2019-02-02T05:03:56.283Z,48.00
2019-02-02T05:06:28.506Z,52.43
2019-02-02T05:09:00.694Z,51.80
2019-02-02T05:11:33.074Z,49.53
2019-02-02T05:14:05.159Z,53.10
2019-02-02T05:16:38.374Z,51.83
2019-02-02T05:19:10.396Z,53.27
2019-02-02T05:21:43.016Z,52.37
2019-02-02T05:24:15.211Z,49.20
2019-02-02T05:26:47.415Z,49.47
2019-02-02T05:29:21.831Z,49.03
2019-02-02T05:31:53.889Z,49.33
2019-02-02T05:34:26.181Z,47.43
2019-02-02T05:36:58.750Z,52.00
2019-02-02T05:39:30.679Z,50.23
2019-02-02T05:42:02.663Z,53.47
2019-02-02T05:44:35.723Z,51.10
2019-02-02T05:47:09.988Z,49.07
2019-02-02T05:49:42.019Z,50.77
2019-02-02T05:52:14.242Z,55.47
2019-02-02T05:54:46.420Z,52.80
2019-02-02T05:57:18.635Z,49.93
2019-02-02T05:59:53.060Z,48.63
2019-02-02T06:02:25.311Z,50.80
2019-02-02T06:04:57.724Z,51.77
2019-02-02T06:07:29.648Z,47.50
2019-02-02T06:10:03.370Z,47.10
2019-02-02T06:12:36.356Z,54.70
2019-02-02T06:15:09.149Z,56.70
2019-02-02T06:17:41.172Z,55.07
2019-02-02T06:20:14.252Z,52.23
2019-02-02T06:22:46.540Z,55.13
2019-02-02T06:25:19.055Z,57.63
2019-02-02T06:27:51.043Z,55.00
2019-02-02T06:30:25.219Z,51.77
2019-02-02T06:32:57.727Z,56.70
2019-02-02T06:35:29.835Z,55.67
2019-02-02T06:38:04.258Z,57.97
2019-02-02T06:40:37.975Z,56.50
2019-02-02T06:43:10.475Z,54.47
2019-02-02T06:45:43.885Z,55.37
2019-02-02T06:48:16.318Z,56.03
2019-02-02T06:50:48.747Z,53.97
2019-02-02T06:53:23.617Z,57.27
2019-02-02T06:55:56.638Z,57.13
2019-02-02T06:58:29.363Z,51.37
2019-02-02T07:01:02.743Z,58.30
2019-02-02T07:03:34.831Z,57.17
2019-02-02T07:06:09.902Z,59.00
2019-02-02T07:08:42.072Z,56.23
2019-02-02T07:11:14.288Z,53.47
2019-02-02T07:13:47.340Z,55.60
2019-02-02T07:16:19.929Z,57.67
2019-02-02T07:18:54.212Z,57.47
2019-02-02T07:21:28.537Z,57.40
2019-02-02T07:24:00.529Z,53.40
2019-02-02T07:26:32.657Z,56.57
2019-02-02T07:29:06.613Z,56.00
2019-02-02T07:31:38.571Z,59.90
2019-02-02T07:34:10.640Z,54.40
2019-02-02T07:36:43.739Z,52.73
2019-02-02T07:39:15.894Z,53.70
2019-02-02T07:41:47.807Z,57.33
2019-02-02T07:44:20.707Z,56.50
2019-02-02T07:46:52.766Z,56.20
2019-02-02T07:49:24.964Z,57.50
2019-02-02T07:51:58.002Z,53.37
2019-02-02T07:54:32.977Z,53.57
2019-02-02T07:57:04.108Z,50.37
2019-02-02T07:59:36.367Z,54.17
2019-02-02T08:02:08.361Z,51.23
2019-02-02T08:04:40.436Z,51.73
2019-02-02T08:07:12.433Z,48.10
2019-02-02T08:09:44.424Z,50.63
2019-02-02T08:12:19.443Z,53.63
2019-02-02T08:14:51.609Z,50.60
2019-02-02T08:17:24.719Z,47.67
2019-02-02T08:19:56.938Z,49.70
2019-02-02T08:22:29.061Z,47.43
2019-02-02T08:25:02.554Z,48.90
2019-02-02T08:27:36.558Z,50.43
2019-02-02T08:30:12.766Z,53.83
2019-02-02T08:32:46.059Z,54.27
2019-02-02T08:35:19.600Z,53.30
2019-02-02T08:37:51.783Z,54.20
2019-02-02T08:40:24.919Z,52.83
2019-02-02T08:42:56.970Z,57.20
2019-02-02T08:45:28.970Z,55.30
2019-02-02T08:48:02.390Z,52.37
2019-02-02T08:50:39.065Z,50.60
2019-02-02T08:53:12.484Z,52.90
2019-02-02T08:55:45.900Z,52.23
2019-02-02T08:58:18.047Z,47.67
2019-02-02T09:00:50.176Z,48.67
2019-02-02T09:03:23.509Z,49.33
2019-02-02T09:05:55.936Z,48.03
2019-02-02T09:08:29.196Z,47.97
2019-02-02T09:11:03.030Z,44.83
2019-02-02T09:13:36.901Z,45.83
2019-02-02T09:16:10.731Z,44.63
2019-02-02T09:18:42.907Z,48.97
2019-02-02T09:21:15.059Z,40.87
2019-02-02T09:23:47.032Z,47.27
2019-02-02T09:26:19.960Z,41.77
2019-02-02T09:28:54.135Z,44.33
2019-02-02T09:31:26.061Z,42.60
2019-02-02T09:33:58.195Z,45.00
2019-02-02T09:36:32.761Z,43.63
2019-02-02T09:39:06.402Z,47.53
2019-02-02T09:41:40.730Z,45.80
2019-02-02T09:44:12.540Z,42.03
2019-02-02T09:46:45.959Z,44.63
2019-02-02T09:49:18.192Z,45.57
2019-02-02T09:51:50.174Z,44.53
2019-02-02T09:54:26.499Z,43.50
2019-02-02T09:56:58.412Z,41.80
2019-02-02T09:59:33.014Z,42.73
2019-02-02T10:02:05.636Z,45.37
2019-02-02T10:04:37.947Z,41.27
2019-02-02T10:07:11.200Z,40.97
2019-02-02T10:09:44.437Z,39.20
2019-02-02T10:12:16.595Z,42.03
2019-02-02T10:14:50.010Z,43.40
2019-02-02T10:17:22.161Z,45.40
2019-02-02T10:19:54.303Z,44.37
2019-02-02T10:22:26.435Z,47.30
2019-02-02T10:24:59.560Z,43.50
2019-02-02T10:27:31.780Z,42.77
2019-02-02T10:30:03.838Z,41.23
2019-02-02T10:32:37.105Z,41.67
2019-02-02T10:35:09.119Z,43.07
2019-02-02T10:37:41.958Z,44.53
2019-02-02T10:40:14.304Z,40.27
2019-02-02T10:42:46.791Z,42.17
2019-02-02T10:45:18.838Z,44.27
2019-02-02T10:47:52.223Z,42.20
2019-02-02T10:50:25.529Z,40.93
2019-02-02T10:52:57.805Z,40.83
2019-02-02T10:55:29.993Z,40.77
2019-02-02T10:58:24.974Z,42.33
2019-02-02T11:01:01.326Z,39.63
2019-02-02T11:03:36.762Z,41.87
2019-02-02T11:06:08.762Z,42.03
2019-02-02T11:08:46.927Z,45.87
2019-02-02T11:11:29.966Z,41.47
2019-02-02T11:14:06.301Z,39.40
2019-02-02T11:16:38.281Z,40.43
2019-02-02T11:19:21.783Z,37.93
2019-02-02T11:21:56.203Z,42.63
2019-02-02T11:24:31.644Z,41.27
2019-02-02T11:27:04.752Z,38.47
2019-02-02T11:29:36.907Z,38.37
2019-02-02T11:32:09.835Z,38.37
2019-02-02T11:34:46.090Z,35.80
2019-02-02T11:37:22.324Z,35.83
2019-02-02T11:39:57.806Z,38.27
2019-02-02T11:45:27.912Z,36.37
2019-02-02T11:48:01.490Z,35.17
2019-02-02T11:50:34.479Z,36.43
2019-02-02T11:53:06.523Z,39.10
2019-02-02T11:55:40.745Z,36.70
2019-02-02T11:58:14.298Z,35.67
2019-02-02T12:00:46.574Z,36.50
2019-02-02T12:03:26.414Z,37.63
2019-02-02T12:05:58.615Z,36.27
2019-02-02T12:08:55.773Z,37.47
2019-02-02T12:11:35.516Z,38.83
2019-02-02T12:17:19.426Z,36.53
2019-02-02T12:19:51.360Z,34.33
2019-02-02T12:22:23.240Z,35.67
2019-02-02T12:24:55.402Z,36.27
2019-02-02T12:27:27.460Z,35.10
2019-02-02T12:30:00.528Z,36.73
2019-02-02T12:32:32.493Z,37.77
2019-02-02T12:35:05.139Z,33.27
2019-02-02T12:37:37.275Z,33.53
2019-02-02T12:40:11.601Z,35.67
2019-02-02T12:42:43.435Z,34.27
2019-02-02T12:45:18.288Z,38.00
2019-02-02T12:47:51.514Z,36.53
2019-02-02T12:50:24.587Z,34.20
2019-02-02T12:52:57.528Z,36.43
2019-02-02T12:55:29.471Z,39.30
2019-02-02T12:58:02.579Z,36.13
2019-02-02T13:00:36.968Z,38.00
2019-02-02T13:03:09.559Z,35.73
2019-02-02T13:05:41.498Z,38.73
2019-02-02T13:08:13.779Z,35.53
2019-02-02T13:10:48.479Z,35.93
2019-02-02T13:13:21.464Z,35.93
2019-02-02T13:15:53.463Z,36.63
2019-02-02T13:18:26.759Z,36.37
2019-02-02T13:21:00.729Z,34.53
2019-02-02T13:23:32.709Z,35.73
2019-02-02T13:26:05.898Z,33.87
2019-02-02T13:28:41.122Z,34.77
2019-02-02T13:31:13.135Z,36.63
2019-02-02T13:33:46.269Z,34.97
2019-02-02T13:36:19.368Z,32.07
2019-02-02T13:38:51.487Z,34.27
2019-02-02T13:41:24.858Z,35.77
2019-02-02T13:43:57.919Z,33.37
2019-02-02T13:46:29.955Z,32.93
2019-02-02T13:49:04.522Z,32.90
2019-02-02T13:51:37.535Z,33.53
2019-02-02T13:54:14.991Z,31.60
2019-02-02T13:56:49.812Z,30.83
2019-02-02T13:59:21.558Z,30.87
2019-02-02T14:01:54.632Z,33.00
2019-02-02T14:04:28.148Z,32.47
2019-02-02T14:07:00.149Z,29.90
2019-02-02T14:09:33.165Z,31.40
2019-02-02T14:12:05.358Z,30.03
2019-02-02T14:14:37.597Z,29.30
2019-02-02T14:21:26.434Z,29.90
2019-02-02T14:23:58.748Z,31.80
2019-02-02T14:26:30.962Z,32.03
2019-02-02T14:29:03.023Z,32.47
2019-02-02T14:31:35.010Z,33.57
2019-02-02T14:34:07.117Z,31.73
2019-02-02T14:43:10.586Z,29.97
2019-02-02T14:45:46.883Z,28.37
2019-02-02T14:48:28.287Z,28.57
2019-02-02T14:51:04.314Z,28.40
2019-02-02T14:56:32.378Z,29.83
2019-02-02T14:59:13.484Z,30.73
2019-02-02T15:01:45.323Z,28.90
2019-02-02T15:04:17.281Z,26.83
2019-02-02T15:06:49.163Z,31.10
2019-02-02T15:09:21.048Z,29.73
2019-02-02T15:11:53.010Z,29.67
2019-02-02T15:14:24.786Z,30.50
2019-02-02T15:16:56.674Z,31.03
2019-02-02T15:19:28.587Z,31.90
2019-02-02T15:22:00.454Z,31.80
2019-02-02T15:24:32.396Z,34.97
2019-02-02T15:27:04.283Z,30.33
2019-02-02T15:29:36.131Z,33.23
2019-02-02T15:32:08.012Z,31.57
2019-02-02T15:34:39.934Z,33.23
2019-02-02T15:37:11.863Z,33.43
2019-02-02T15:39:43.770Z,32.80
2019-02-02T15:42:15.671Z,35.03
2019-02-02T15:44:47.531Z,32.17
2019-02-02T15:47:19.359Z,34.50
2019-02-02T15:49:51.202Z,36.83
2019-02-02T15:52:23.109Z,34.30
2019-02-02T15:54:55.021Z,35.53
2019-02-02T15:57:28.223Z,35.43
2019-02-02T16:00:00.085Z,35.23
2019-02-02T16:02:31.987Z,31.83
2019-02-02T16:05:04.563Z,38.47
2019-02-02T16:07:36.512Z,38.03
2019-02-02T16:10:10.791Z,36.60
2019-02-02T16:12:42.600Z,34.80
2019-02-02T16:15:14.872Z,35.27
2019-02-02T16:17:46.831Z,34.00
2019-02-02T16:20:21.035Z,34.97
2019-02-02T16:22:52.836Z,35.30
2019-02-02T16:25:24.761Z,36.23
2019-02-02T16:27:56.556Z,34.73
2019-02-02T16:30:29.842Z,35.83
2019-02-02T16:33:01.703Z,35.37
2019-02-02T16:35:34.796Z,39.57
2019-02-02T16:38:07.159Z,37.10
2019-02-02T16:40:38.966Z,39.97
2019-02-02T16:43:10.962Z,38.40
2019-02-02T16:45:43.762Z,39.60
2019-02-02T16:48:15.633Z,39.77
2019-02-02T16:50:47.424Z,38.50
2019-02-02T16:53:21.767Z,40.10
2019-02-02T16:55:52.826Z,38.63
2019-02-02T16:58:25.986Z,39.17
2019-02-02T17:00:57.804Z,38.10
2019-02-02T17:03:29.623Z,41.60
2019-02-02T17:06:01.021Z,40.20
2019-02-02T17:08:33.842Z,43.13
2019-02-02T17:11:06.817Z,43.13
2019-02-02T17:13:38.697Z,44.00
2019-02-02T17:16:10.527Z,40.87
2019-02-02T17:18:42.333Z,39.93
2019-02-02T17:21:14.184Z,40.47
2019-02-02T17:23:46.109Z,40.60
2019-02-02T17:26:17.922Z,42.53
2019-02-02T17:28:50.959Z,42.23
2019-02-02T17:31:24.386Z,42.23
2019-02-02T17:33:57.590Z,43.27
2019-02-02T17:36:29.572Z,41.37
2019-02-02T17:39:04.865Z,44.50
2019-02-02T17:41:36.818Z,43.70
2019-02-02T17:44:09.815Z,39.57
2019-02-02T17:46:47.137Z,43.37
2019-02-02T17:49:20.537Z,42.83
2019-02-02T17:51:53.355Z,42.70
2019-02-02T17:54:27.807Z,43.50
2019-02-02T17:57:02.174Z,44.50
2019-02-02T17:59:34.019Z,43.70
2019-02-02T18:02:06.107Z,49.30
2019-02-02T18:04:43.072Z,44.43
2019-02-02T18:07:14.059Z,44.43
2019-02-02T18:09:47.123Z,49.17
2019-02-02T18:12:20.106Z,48.10
2019-02-02T18:14:53.581Z,51.23
2019-02-02T18:17:29.221Z,50.03
2019-02-02T18:20:01.215Z,52.13
2019-02-02T18:22:34.116Z,47.80
2019-02-02T18:25:08.302Z,49.03
2019-02-02T18:27:42.814Z,53.37
2019-02-02T18:30:18.417Z,53.17
2019-02-02T18:32:50.267Z,54.03
2019-02-02T18:35:22.398Z,52.83
2019-02-02T18:37:54.270Z,56.63
2019-02-02T18:40:27.157Z,51.97
2019-02-02T18:42:59.020Z,55.40
2019-02-02T18:45:31.899Z,51.10
2019-02-02T18:48:03.937Z,54.80
2019-02-02T18:50:35.785Z,54.33
2019-02-02T18:53:07.607Z,52.07
2019-02-02T18:55:52.099Z,50.90
2019-02-02T18:58:24.075Z,50.03
2019-02-02T19:00:55.989Z,53.37
2019-02-02T19:03:27.898Z,48.70
2019-02-02T19:05:59.794Z,48.63
2019-02-02T19:08:31.654Z,48.57
2019-02-02T19:11:03.836Z,49.10
2019-02-02T19:13:35.938Z,48.67
2019-02-02T19:16:07.944Z,45.27
2019-02-02T19:18:39.868Z,50.80
2019-02-02T19:21:11.743Z,47.63
2019-02-02T19:23:43.618Z,48.73
2019-02-02T19:26:15.563Z,53.80
2019-02-02T19:28:48.472Z,53.17
2019-02-02T19:31:20.403Z,54.87
2019-02-02T19:33:52.275Z,51.20
2019-02-02T19:36:24.169Z,54.40
2019-02-02T19:38:56.110Z,52.87
2019-02-02T19:41:28.049Z,53.60
2019-02-02T19:43:59.913Z,51.43
2019-02-02T19:46:31.740Z,53.93
2019-02-02T19:49:03.629Z,51.00
2019-02-02T19:51:35.534Z,49.23
2019-02-02T19:54:11.503Z,49.70
2019-02-02T19:56:44.667Z,54.60
2019-02-02T19:59:16.670Z,53.43
2019-02-02T20:01:48.574Z,55.53
2019-02-02T20:04:20.386Z,51.00
2019-02-02T20:06:52.382Z,49.83
2019-02-02T20:09:24.213Z,50.60
2019-02-02T20:11:56.117Z,51.13
2019-02-02T20:14:27.954Z,53.57
2019-02-02T20:16:59.800Z,54.40
2019-02-02T20:19:31.654Z,53.63
2019-02-02T20:22:03.525Z,50.43
2019-02-02T20:24:35.396Z,46.63
2019-02-02T20:27:07.299Z,54.33
2019-02-02T20:29:39.130Z,48.43
2019-02-02T20:32:10.938Z,50.77
2019-02-02T20:34:42.727Z,46.67
2019-02-02T20:37:14.517Z,45.20
2019-02-02T20:39:46.365Z,47.00
2019-02-02T20:42:18.145Z,47.30
2019-02-02T20:44:49.927Z,41.67
2019-02-02T20:47:21.862Z,43.63
2019-02-02T20:49:54.026Z,43.83
2019-02-02T20:52:25.850Z,42.27
2019-02-02T20:54:57.692Z,42.53
2019-02-02T20:57:29.492Z,45.13
2019-02-02T21:00:01.398Z,51.70
2019-02-02T21:02:33.316Z,60.73
2019-02-02T21:05:05.668Z,53.90
2019-02-02T21:07:37.452Z,49.27
2019-02-02T21:10:11.568Z,51.53
2019-02-02T21:12:43.789Z,51.83
2019-02-02T21:15:15.772Z,47.23
2019-02-02T21:17:47.631Z,50.53
2019-02-02T21:20:24.604Z,52.00
2019-02-02T21:22:56.770Z,49.70
2019-02-02T21:25:28.678Z,50.27
2019-02-02T21:28:00.455Z,49.33
2019-02-02T21:30:34.313Z,53.20
2019-02-02T21:33:06.738Z,57.07
2019-02-02T21:35:38.660Z,52.13
2019-02-02T21:38:10.517Z,48.63
2019-02-02T21:40:42.425Z,50.40
2019-02-02T21:43:14.325Z,49.07
2019-02-02T21:45:46.154Z,47.67
2019-02-02T21:48:24.122Z,50.53
2019-02-02T21:50:55.983Z,47.37
2019-02-02T21:53:27.836Z,46.43
2019-02-02T21:55:59.688Z,47.30
2019-02-02T21:58:31.519Z,44.37
2019-02-02T22:01:03.388Z,46.63
2019-02-02T22:03:36.232Z,42.73
2019-02-02T22:06:15.620Z,42.60
2019-02-02T22:08:46.383Z,41.67
2019-02-02T22:11:18.359Z,42.47
2019-02-02T22:13:51.189Z,40.70
2019-02-02T22:16:23.580Z,42.77
2019-02-02T22:18:56.696Z,40.67
2019-02-02T22:21:28.695Z,39.97
2019-02-02T22:24:00.595Z,38.50
2019-02-02T22:26:32.544Z,45.53
2019-02-02T22:29:05.410Z,40.97
2019-02-02T22:31:39.404Z,41.63
2019-02-02T22:34:13.709Z,40.17
2019-02-02T22:36:46.548Z,42.13
2019-02-02T22:39:19.688Z,45.10
2019-02-02T22:41:51.619Z,42.87
2019-02-02T22:44:25.227Z,39.20
2019-02-02T22:46:59.452Z,46.90
2019-02-02T22:49:32.593Z,42.17
2019-02-02T22:52:05.802Z,43.73
2019-02-02T22:54:39.997Z,45.60
2019-02-02T22:57:12.164Z,43.80
2019-02-02T22:59:47.790Z,44.90
2019-02-02T23:02:21.641Z,43.97
2019-02-02T23:05:26.035Z,46.03
2019-02-02T23:08:40.265Z,48.73
2019-02-02T23:11:33.105Z,47.20
2019-02-02T23:14:29.318Z,44.90
2019-02-02T23:17:01.436Z,46.03
2019-02-02T23:19:33.432Z,44.00
2019-02-02T23:22:05.793Z,45.50
2019-02-02T23:24:38.062Z,42.83
2019-02-02T23:27:10.503Z,45.87
2019-02-02T23:29:42.890Z,50.80
2019-02-02T23:32:15.063Z,44.33
2019-02-02T23:34:48.250Z,47.17
2019-02-02T23:37:20.420Z,45.27
2019-02-02T23:39:52.584Z,46.40
2019-02-02T23:42:25.589Z,45.67
2019-02-02T23:44:57.698Z,45.17
2019-02-02T23:47:29.639Z,40.13
2019-02-02T23:50:01.842Z,46.57
2019-02-02T23:52:33.829Z,45.10
2019-02-02T23:55:06.595Z,45.53
2019-02-02T23:57:40.222Z,42.10
